sensor_id;sensor_type;location;lat;lon;timestamp;pressure;altitude;pressure_sealevel;temperature;humidity
57452;BME280;66031;51.224;-0.164;2023-02-26T00:00:12;101356.65;;;17.26;34.03
57452;BME280;66031;51.224;-0.164;2023-02-26T00:02:34;101357.80;;;17.57;33.89
57452;BME280;66031;51.224;-0.164;2023-02-26T00:04:59;101352.47;;;17.32;33.87
57452;BME280;66031;51.224;-0.164;2023-02-26T00:07:24;101353.63;;;17.17;34.13
57452;BME280;66031;51.224;-0.164;2023-02-26T00:09:49;101355.12;;;16.94;34.15
57452;BME280;66031;51.224;-0.164;2023-02-26T00:12:15;101355.04;;;16.90;34.20
57452;BME280;66031;51.224;-0.164;2023-02-26T00:14:41;101360.07;;;17.07;34.12
57452;BME280;66031;51.224;-0.164;2023-02-26T00:17:16;101360.40;;;16.83;34.10
57452;BME280;66031;51.224;-0.164;2023-02-26T00:19:31;101364.66;;;16.91;34.06
57452;BME280;66031;51.224;-0.164;2023-02-26T00:21:56;101364.19;;;16.89;34.22
57452;BME280;66031;51.224;-0.164;2023-02-26T00:24:21;101370.04;;;16.44;34.31
57452;BME280;66031;51.224;-0.164;2023-02-26T00:26:46;101364.73;;;16.85;34.27
57452;BME280;66031;51.224;-0.164;2023-02-26T00:29:12;101365.30;;;16.26;34.40
57452;BME280;66031;51.224;-0.164;2023-02-26T00:31:37;101365.93;;;16.61;34.47
57452;BME280;66031;51.224;-0.164;2023-02-26T00:34:03;101363.05;;;16.54;34.51
57452;BME280;66031;51.224;-0.164;2023-02-26T00:36:34;101373.66;;;16.52;34.49
57452;BME280;66031;51.224;-0.164;2023-02-26T00:39:01;101372.33;;;16.46;34.51
57452;BME280;66031;51.224;-0.164;2023-02-26T00:41:19;101368.97;;;16.41;34.51
57452;BME280;66031;51.224;-0.164;2023-02-26T00:43:44;101367.16;;;16.35;34.51
57452;BME280;66031;51.224;-0.164;2023-02-26T00:46:20;101371.16;;;16.30;34.54
57452;BME280;66031;51.224;-0.164;2023-02-26T00:48:43;101374.01;;;16.31;34.45
57452;BME280;66031;51.224;-0.164;2023-02-26T00:51:06;101374.48;;;16.04;34.40
57452;BME280;66031;51.224;-0.164;2023-02-26T00:53:28;101373.45;;;16.48;34.41
57452;BME280;66031;51.224;-0.164;2023-02-26T00:55:50;101377.06;;;16.18;34.44
57452;BME280;66031;51.224;-0.164;2023-02-26T00:58:15;101376.21;;;16.37;34.44
57452;BME280;66031;51.224;-0.164;2023-02-26T01:00:40;101378.47;;;16.07;34.46
57452;BME280;66031;51.224;-0.164;2023-02-26T01:03:06;101375.72;;;16.03;34.46
57452;BME280;66031;51.224;-0.164;2023-02-26T01:05:31;101378.23;;;16.25;34.45
57452;BME280;66031;51.224;-0.164;2023-02-26T01:08:02;101379.19;;;15.99;34.41
57452;BME280;66031;51.224;-0.164;2023-02-26T01:10:22;101373.89;;;15.96;34.42
57452;BME280;66031;51.224;-0.164;2023-02-26T01:12:47;101372.57;;;16.15;34.42
57452;BME280;66031;51.224;-0.164;2023-02-26T01:15:13;101375.14;;;15.86;34.47
57452;BME280;66031;51.224;-0.164;2023-02-26T01:17:42;101376.21;;;15.87;34.44
57452;BME280;66031;51.224;-0.164;2023-02-26T01:20:08;101377.78;;;15.93;34.31
57452;BME280;66031;51.224;-0.164;2023-02-26T01:22:32;101380.76;;;16.31;34.40
57452;BME280;66031;51.224;-0.164;2023-02-26T01:25:04;101384.63;;;15.97;34.47
57452;BME280;66031;51.224;-0.164;2023-02-26T01:27:19;101380.72;;;15.70;34.51
57452;BME280;66031;51.224;-0.164;2023-02-26T01:29:44;101385.06;;;15.92;34.48
57452;BME280;66031;51.224;-0.164;2023-02-26T01:32:16;101382.69;;;15.63;34.50
57452;BME280;66031;51.224;-0.164;2023-02-26T01:34:39;101384.82;;;15.62;34.50
57452;BME280;66031;51.224;-0.164;2023-02-26T01:37:13;101389.21;;;15.54;34.55
57452;BME280;66031;51.224;-0.164;2023-02-26T01:39:27;101387.70;;;15.53;34.52
57452;BME280;66031;51.224;-0.164;2023-02-26T01:41:54;101385.90;;;15.74;34.52
57452;BME280;66031;51.224;-0.164;2023-02-26T01:44:22;101388.59;;;15.95;34.52
57452;BME280;66031;51.224;-0.164;2023-02-26T01:46:55;101388.52;;;15.66;34.54
57452;BME280;66031;51.224;-0.164;2023-02-26T01:49:12;101392.78;;;15.64;34.52
57452;BME280;66031;51.224;-0.164;2023-02-26T01:51:44;101392.12;;;15.65;34.48
57452;BME280;66031;51.224;-0.164;2023-02-26T01:53:57;101391.77;;;15.60;34.50
57452;BME280;66031;51.224;-0.164;2023-02-26T01:56:22;101391.86;;;15.88;34.42
57452;BME280;66031;51.224;-0.164;2023-02-26T01:58:48;101393.53;;;15.77;34.51
57452;BME280;66031;51.224;-0.164;2023-02-26T02:01:13;101391.18;;;15.48;34.53
57452;BME280;66031;51.224;-0.164;2023-02-26T02:03:40;101393.38;;;15.43;34.55
57452;BME280;66031;51.224;-0.164;2023-02-26T02:06:06;101397.41;;;15.41;34.56
57452;BME280;66031;51.224;-0.164;2023-02-26T02:08:29;101398.80;;;15.61;34.58
57452;BME280;66031;51.224;-0.164;2023-02-26T02:10:54;101398.95;;;15.57;34.59
57452;BME280;66031;51.224;-0.164;2023-02-26T02:13:30;101399.48;;;15.54;34.63
57452;BME280;66031;51.224;-0.164;2023-02-26T02:15:48;101398.44;;;15.27;34.61
57452;BME280;66031;51.224;-0.164;2023-02-26T02:18:17;101401.64;;;15.58;34.50
57452;BME280;66031;51.224;-0.164;2023-02-26T02:23:09;101404.98;;;15.24;34.55
57452;BME280;66031;51.224;-0.164;2023-02-26T02:25:39;101403.39;;;15.45;34.58
57452;BME280;66031;51.224;-0.164;2023-02-26T02:27:57;101405.31;;;14.92;34.59
57452;BME280;66031;51.224;-0.164;2023-02-26T02:30:26;101407.35;;;15.38;34.58
57452;BME280;66031;51.224;-0.164;2023-02-26T02:32:44;101406.23;;;15.35;34.61
57452;BME280;66031;51.224;-0.164;2023-02-26T02:35:12;101409.34;;;14.83;34.65
57452;BME280;66031;51.224;-0.164;2023-02-26T02:37:36;101410.54;;;15.37;34.51
57452;BME280;66031;51.224;-0.164;2023-02-26T02:40:01;101411.87;;;15.30;34.57
57452;BME280;66031;51.224;-0.164;2023-02-26T02:42:27;101414.83;;;15.28;34.57
57452;BME280;66031;51.224;-0.164;2023-02-26T02:44:54;101418.56;;;15.22;34.60
57452;BME280;66031;51.224;-0.164;2023-02-26T02:47:16;101412.76;;;15.20;34.59
57452;BME280;66031;51.224;-0.164;2023-02-26T02:49:44;101413.24;;;15.23;34.54
57452;BME280;66031;51.224;-0.164;2023-02-26T02:52:09;101414.77;;;14.97;34.50
57452;BME280;66031;51.224;-0.164;2023-02-26T02:54:36;101416.85;;;15.18;34.53
57452;BME280;66031;51.224;-0.164;2023-02-26T02:57:00;101418.00;;;15.16;34.54
57452;BME280;66031;51.224;-0.164;2023-02-26T02:59:23;101415.90;;;15.12;34.56
57452;BME280;66031;51.224;-0.164;2023-02-26T03:01:49;101422.52;;;15.12;34.52
57452;BME280;66031;51.224;-0.164;2023-02-26T03:04:13;101423.65;;;15.04;34.63
57452;BME280;66031;51.224;-0.164;2023-02-26T03:06:37;101420.27;;;15.04;34.61
57452;BME280;66031;51.224;-0.164;2023-02-26T03:09:04;101426.96;;;15.03;34.56
57452;BME280;66031;51.224;-0.164;2023-02-26T03:11:27;101424.29;;;15.03;34.53
57452;BME280;66031;51.224;-0.164;2023-02-26T03:13:53;101429.28;;;15.03;34.51
57452;BME280;66031;51.224;-0.164;2023-02-26T03:16:29;101430.47;;;14.97;34.55
57452;BME280;66031;51.224;-0.164;2023-02-26T03:18:52;101431.30;;;15.08;34.38
57452;BME280;66031;51.224;-0.164;2023-02-26T03:21:12;101430.01;;;15.02;34.37
57452;BME280;66031;51.224;-0.164;2023-02-26T03:23:37;101435.35;;;14.96;34.44
57452;BME280;66031;51.224;-0.164;2023-02-26T03:26:05;101434.35;;;14.92;34.48
57452;BME280;66031;51.224;-0.164;2023-02-26T03:28:30;101434.43;;;14.87;34.52
57452;BME280;66031;51.224;-0.164;2023-02-26T03:30:55;101433.65;;;14.83;34.52
57452;BME280;66031;51.224;-0.164;2023-02-26T03:33:21;101436.03;;;14.83;34.49
57452;BME280;66031;51.224;-0.164;2023-02-26T03:35:47;101438.07;;;14.81;34.45
57452;BME280;66031;51.224;-0.164;2023-02-26T03:38:09;101436.64;;;14.73;34.58
57452;BME280;66031;51.224;-0.164;2023-02-26T03:40:36;101439.01;;;14.94;34.55
57452;BME280;66031;51.224;-0.164;2023-02-26T03:43:01;101444.02;;;14.69;34.60
57452;BME280;66031;51.224;-0.164;2023-02-26T03:45:26;101443.36;;;14.69;34.56
57452;BME280;66031;51.224;-0.164;2023-02-26T03:47:50;101444.81;;;14.65;34.54
57452;BME280;66031;51.224;-0.164;2023-02-26T03:50:16;101447.88;;;14.66;34.51
57452;BME280;66031;51.224;-0.164;2023-02-26T03:52:42;101449.83;;;14.59;34.57
57452;BME280;66031;51.224;-0.164;2023-02-26T03:55:08;101455.74;;;14.55;34.58
57452;BME280;66031;51.224;-0.164;2023-02-26T03:57:29;101456.62;;;14.78;34.54
57452;BME280;66031;51.224;-0.164;2023-02-26T03:59:55;101460.44;;;14.73;34.59
57452;BME280;66031;51.224;-0.164;2023-02-26T04:02:24;101465.69;;;14.47;34.57
57452;BME280;66031;51.224;-0.164;2023-02-26T04:04:48;101466.71;;;14.52;34.50
57452;BME280;66031;51.224;-0.164;2023-02-26T04:07:12;101466.73;;;14.51;34.48
57452;BME280;66031;51.224;-0.164;2023-02-26T04:09:36;101466.23;;;14.46;34.48
57452;BME280;66031;51.224;-0.164;2023-02-26T04:12:01;101471.81;;;14.44;34.50
57452;BME280;66031;51.224;-0.164;2023-02-26T04:14:26;101470.16;;;14.64;34.49
57452;BME280;66031;51.224;-0.164;2023-02-26T04:16:52;101472.29;;;14.42;34.51
57452;BME280;66031;51.224;-0.164;2023-02-26T04:19:17;101474.06;;;14.51;34.34
57452;BME280;66031;51.224;-0.164;2023-02-26T04:21:43;101473.79;;;14.43;34.40
57452;BME280;66031;51.224;-0.164;2023-02-26T04:24:08;101476.61;;;14.62;34.44
57452;BME280;66031;51.224;-0.164;2023-02-26T04:26:33;101477.57;;;14.12;34.49
57452;BME280;66031;51.224;-0.164;2023-02-26T04:28:58;101482.05;;;14.86;34.40
57452;BME280;66031;51.224;-0.164;2023-02-26T04:31:24;101486.22;;;14.31;34.44
57452;BME280;66031;51.224;-0.164;2023-02-26T04:33:49;101492.05;;;14.25;34.52
57452;BME280;66031;51.224;-0.164;2023-02-26T04:36:15;101491.02;;;14.46;34.51
57452;BME280;66031;51.224;-0.164;2023-02-26T04:38:40;101492.91;;;14.45;34.49
57452;BME280;66031;51.224;-0.164;2023-02-26T04:41:06;101492.45;;;14.16;34.54
57452;BME280;66031;51.224;-0.164;2023-02-26T04:43:31;101497.03;;;14.42;34.49
57452;BME280;66031;51.224;-0.164;2023-02-26T04:45:56;101496.00;;;14.42;34.46
57452;BME280;66031;51.224;-0.164;2023-02-26T04:48:22;101496.12;;;14.14;34.49
57452;BME280;66031;51.224;-0.164;2023-02-26T04:50:47;101497.27;;;14.63;34.43
57452;BME280;66031;51.224;-0.164;2023-02-26T04:53:12;101494.84;;;14.35;34.45
57452;BME280;66031;51.224;-0.164;2023-02-26T04:55:38;101496.76;;;14.33;34.47
57452;BME280;66031;51.224;-0.164;2023-02-26T04:58:03;101498.46;;;14.56;34.45
57452;BME280;66031;51.224;-0.164;2023-02-26T05:00:28;101503.16;;;14.50;34.49
57452;BME280;66031;51.224;-0.164;2023-02-26T05:02:53;101502.54;;;14.52;34.46
57452;BME280;66031;51.224;-0.164;2023-02-26T05:05:19;101505.49;;;14.50;34.44
57452;BME280;66031;51.224;-0.164;2023-02-26T05:07:44;101507.20;;;14.01;34.44
57452;BME280;66031;51.224;-0.164;2023-02-26T05:10:11;101510.48;;;13.97;34.46
57452;BME280;66031;51.224;-0.164;2023-02-26T05:12:35;101507.16;;;14.41;34.49
57452;BME280;66031;51.224;-0.164;2023-02-26T05:15:00;101507.99;;;14.37;34.49
57452;BME280;66031;51.224;-0.164;2023-02-26T05:17:26;101511.09;;;14.42;34.44
57452;BME280;66031;51.224;-0.164;2023-02-26T05:19:51;101513.64;;;14.49;34.33
57452;BME280;66031;51.224;-0.164;2023-02-26T05:22:16;101516.53;;;14.44;34.35
57452;BME280;66031;51.224;-0.164;2023-02-26T05:24:42;101518.10;;;14.38;34.40
57452;BME280;66031;51.224;-0.164;2023-02-26T05:27:07;101519.24;;;14.30;34.46
57452;BME280;66031;51.224;-0.164;2023-02-26T05:29:32;101520.50;;;14.27;34.45
57452;BME280;66031;51.224;-0.164;2023-02-26T05:31:58;101522.51;;;14.28;34.47
57452;BME280;66031;51.224;-0.164;2023-02-26T05:34:23;101519.30;;;14.47;34.47
57452;BME280;66031;51.224;-0.164;2023-02-26T05:36:48;101518.91;;;14.21;34.50
57452;BME280;66031;51.224;-0.164;2023-02-26T05:39:14;101521.49;;;14.19;34.47
57452;BME280;66031;51.224;-0.164;2023-02-26T05:41:39;101523.45;;;14.15;34.52
57452;BME280;66031;51.224;-0.164;2023-02-26T05:44:05;101527.75;;;14.20;34.45
57452;BME280;66031;51.224;-0.164;2023-02-26T05:46:30;101528.46;;;14.18;34.44
57452;BME280;66031;51.224;-0.164;2023-02-26T05:48:55;101532.64;;;14.19;34.43
57452;BME280;66031;51.224;-0.164;2023-02-26T05:51:21;101536.96;;;13.71;34.39
57452;BME280;66031;51.224;-0.164;2023-02-26T05:53:46;101540.31;;;14.16;34.43
57452;BME280;66031;51.224;-0.164;2023-02-26T05:56:11;101541.26;;;14.12;34.40
57452;BME280;66031;51.224;-0.164;2023-02-26T05:58:37;101544.74;;;14.10;34.41
57452;BME280;66031;51.224;-0.164;2023-02-26T06:01:02;101545.51;;;13.87;34.40
57452;BME280;66031;51.224;-0.164;2023-02-26T06:03:28;101548.39;;;14.08;34.37
57452;BME280;66031;51.224;-0.164;2023-02-26T06:05:53;101556.08;;;14.05;34.44
57452;BME280;66031;51.224;-0.164;2023-02-26T06:08:18;101555.34;;;14.02;34.46
57452;BME280;66031;51.224;-0.164;2023-02-26T06:10:44;101558.87;;;14.02;34.44
57452;BME280;66031;51.224;-0.164;2023-02-26T06:13:09;101562.58;;;13.98;34.47
57452;BME280;66031;51.224;-0.164;2023-02-26T06:15:34;101562.84;;;13.96;34.43
57452;BME280;66031;51.224;-0.164;2023-02-26T06:18:00;101566.97;;;13.74;34.42
57452;BME280;66031;51.224;-0.164;2023-02-26T06:20:25;101569.42;;;14.22;34.36
57452;BME280;66031;51.224;-0.164;2023-02-26T06:22:51;101572.56;;;13.93;34.41
57452;BME280;66031;51.224;-0.164;2023-02-26T06:25:16;101570.38;;;13.67;34.42
57452;BME280;66031;51.224;-0.164;2023-02-26T06:27:41;101573.01;;;13.97;34.32
57452;BME280;66031;51.224;-0.164;2023-02-26T06:30:08;101576.95;;;13.91;34.40
57452;BME280;66031;51.224;-0.164;2023-02-26T06:32:32;101584.12;;;13.96;34.29
57452;BME280;66031;51.224;-0.164;2023-02-26T06:34:57;101590.43;;;13.95;34.26
57452;BME280;66031;51.224;-0.164;2023-02-26T06:37:23;101593.13;;;13.98;34.30
57452;BME280;66031;51.224;-0.164;2023-02-26T06:39:48;101592.05;;;14.11;34.25
57452;BME280;66031;51.224;-0.164;2023-02-26T06:42:14;101593.78;;;14.11;34.37
57452;BME280;66031;51.224;-0.164;2023-02-26T06:44:39;101595.66;;;14.20;34.39
57452;BME280;66031;51.224;-0.164;2023-02-26T06:47:04;101597.65;;;14.32;34.39
57452;BME280;66031;51.224;-0.164;2023-02-26T06:49:30;101599.77;;;14.20;34.29
57452;BME280;66031;51.224;-0.164;2023-02-26T06:51:55;101603.29;;;14.48;34.30
57452;BME280;66031;51.224;-0.164;2023-02-26T06:54:20;101603.60;;;14.62;34.15
57452;BME280;66031;51.224;-0.164;2023-02-26T06:56:46;101602.51;;;14.47;34.13
57452;BME280;66031;51.224;-0.164;2023-02-26T06:59:11;101602.39;;;14.81;34.07
57452;BME280;66031;51.224;-0.164;2023-02-26T07:01:37;101601.53;;;14.60;34.07
57452;BME280;66031;51.224;-0.164;2023-02-26T07:04:02;101602.87;;;14.69;33.98
57452;BME280;66031;51.224;-0.164;2023-02-26T07:06:27;101607.64;;;14.99;33.93
57452;BME280;66031;51.224;-0.164;2023-02-26T07:08:53;101618.27;;;15.06;33.94
57452;BME280;66031;51.224;-0.164;2023-02-26T07:11:18;101622.68;;;14.62;33.85
57452;BME280;66031;51.224;-0.164;2023-02-26T07:13:43;101629.20;;;14.85;34.00
57452;BME280;66031;51.224;-0.164;2023-02-26T07:16:09;101638.35;;;14.71;33.97
57452;BME280;66031;51.224;-0.164;2023-02-26T07:18:34;101645.66;;;14.90;33.78
57452;BME280;66031;51.224;-0.164;2023-02-26T07:21:00;101649.13;;;14.99;33.74
57452;BME280;66031;51.224;-0.164;2023-02-26T07:23:25;101648.21;;;14.98;33.75
57452;BME280;66031;51.224;-0.164;2023-02-26T07:25:50;101662.38;;;15.06;33.76
57452;BME280;66031;51.224;-0.164;2023-02-26T07:28:16;101664.90;;;15.13;33.70
57452;BME280;66031;51.224;-0.164;2023-02-26T07:30:41;101671.93;;;15.20;33.71
57452;BME280;66031;51.224;-0.164;2023-02-26T07:33:07;101682.76;;;15.31;33.60
57452;BME280;66031;51.224;-0.164;2023-02-26T07:35:31;101681.77;;;15.40;33.60
57452;BME280;66031;51.224;-0.164;2023-02-26T07:37:57;101685.41;;;15.49;33.52
57452;BME280;66031;51.224;-0.164;2023-02-26T07:40:22;101690.54;;;15.37;33.41
57452;BME280;66031;51.224;-0.164;2023-02-26T07:42:47;101692.79;;;15.43;33.34
57452;BME280;66031;51.224;-0.164;2023-02-26T07:45:13;101691.50;;;15.72;33.34
57452;BME280;66031;51.224;-0.164;2023-02-26T07:47:38;101696.26;;;16.08;33.14
57452;BME280;66031;51.224;-0.164;2023-02-26T07:50:04;101695.62;;;16.14;33.05
57452;BME280;66031;51.224;-0.164;2023-02-26T07:52:29;101696.91;;;16.72;33.06
57452;BME280;66031;51.224;-0.164;2023-02-26T07:54:54;101703.38;;;16.53;32.89
57452;BME280;66031;51.224;-0.164;2023-02-26T07:57:20;101711.09;;;16.64;32.97
57452;BME280;66031;51.224;-0.164;2023-02-26T07:59:45;101715.02;;;16.55;32.80
57452;BME280;66031;51.224;-0.164;2023-02-26T08:02:11;101716.66;;;16.73;32.89
57452;BME280;66031;51.224;-0.164;2023-02-26T08:04:35;101719.03;;;17.09;32.81
57452;BME280;66031;51.224;-0.164;2023-02-26T08:07:01;101722.22;;;17.27;32.73
57452;BME280;66031;51.224;-0.164;2023-02-26T08:09:26;101721.53;;;17.36;32.70
57452;BME280;66031;51.224;-0.164;2023-02-26T08:11:51;101723.36;;;17.50;32.62
57452;BME280;66031;51.224;-0.164;2023-02-26T08:14:17;101730.06;;;17.32;32.29
57452;BME280;66031;51.224;-0.164;2023-02-26T08:16:42;101732.83;;;16.86;31.98
57452;BME280;66031;51.224;-0.164;2023-02-26T08:19:07;101731.14;;;16.87;32.13
57452;BME280;66031;51.224;-0.164;2023-02-26T08:21:32;101736.47;;;17.08;32.19
57452;BME280;66031;51.224;-0.164;2023-02-26T08:23:58;101738.79;;;17.01;32.25
57452;BME280;66031;51.224;-0.164;2023-02-26T08:26:23;101739.07;;;17.08;32.17
57452;BME280;66031;51.224;-0.164;2023-02-26T08:28:48;101738.82;;;17.23;32.41
57452;BME280;66031;51.224;-0.164;2023-02-26T08:31:14;101748.92;;;17.55;32.46
57452;BME280;66031;51.224;-0.164;2023-02-26T08:33:39;101749.03;;;17.51;32.01
57452;BME280;66031;51.224;-0.164;2023-02-26T08:36:05;101750.73;;;17.52;31.84
57452;BME280;66031;51.224;-0.164;2023-02-26T08:38:30;101754.80;;;17.35;31.84
57452;BME280;66031;51.224;-0.164;2023-02-26T08:40:55;101757.53;;;17.25;31.66
57452;BME280;66031;51.224;-0.164;2023-02-26T08:43:20;101760.11;;;17.21;31.57
57452;BME280;66031;51.224;-0.164;2023-02-26T08:45:45;101763.48;;;17.12;31.55
57452;BME280;66031;51.224;-0.164;2023-02-26T08:48:10;101768.82;;;17.09;31.53
57452;BME280;66031;51.224;-0.164;2023-02-26T08:50:36;101768.19;;;17.40;31.54
57452;BME280;66031;51.224;-0.164;2023-02-26T08:53:01;101772.55;;;17.48;31.29
57452;BME280;66031;51.224;-0.164;2023-02-26T08:55:26;101767.28;;;17.17;31.57
57452;BME280;66031;51.224;-0.164;2023-02-26T08:57:51;101773.04;;;17.65;31.00
57452;BME280;66031;51.224;-0.164;2023-02-26T09:00:17;101771.89;;;17.57;31.37
57452;BME280;66031;51.224;-0.164;2023-02-26T09:02:43;101776.56;;;17.44;31.47
57452;BME280;66031;51.224;-0.164;2023-02-26T09:05:08;101783.32;;;17.12;31.47
57452;BME280;66031;51.224;-0.164;2023-02-26T09:07:33;101783.31;;;16.97;31.63
57452;BME280;66031;51.224;-0.164;2023-02-26T09:09:58;101789.60;;;17.01;32.24
57452;BME280;66031;51.224;-0.164;2023-02-26T09:12:23;101792.55;;;16.90;32.25
57452;BME280;66031;51.224;-0.164;2023-02-26T09:14:48;101788.05;;;17.26;32.88
57452;BME280;66031;51.224;-0.164;2023-02-26T09:17:14;101790.67;;;17.48;32.44
57452;BME280;66031;51.224;-0.164;2023-02-26T09:19:39;101793.26;;;17.18;32.19
57452;BME280;66031;51.224;-0.164;2023-02-26T09:22:04;101792.91;;;16.81;32.52
57452;BME280;66031;51.224;-0.164;2023-02-26T09:24:30;101792.93;;;16.98;32.79
57452;BME280;66031;51.224;-0.164;2023-02-26T09:26:55;101802.47;;;16.69;33.30
57452;BME280;66031;51.224;-0.164;2023-02-26T09:29:20;101804.71;;;16.33;33.26
57452;BME280;66031;51.224;-0.164;2023-02-26T09:31:45;101808.70;;;16.69;33.51
57452;BME280;66031;51.224;-0.164;2023-02-26T09:34:11;101815.93;;;16.48;33.89
57452;BME280;66031;51.224;-0.164;2023-02-26T09:36:36;101811.23;;;16.84;34.00
57452;BME280;66031;51.224;-0.164;2023-02-26T09:39:02;101817.55;;;16.83;33.96
57452;BME280;66031;51.224;-0.164;2023-02-26T09:41:29;101817.45;;;16.67;33.85
57452;BME280;66031;51.224;-0.164;2023-02-26T09:44:02;101817.55;;;16.71;33.80
57452;BME280;66031;51.224;-0.164;2023-02-26T09:46:26;101817.32;;;16.56;33.80
57452;BME280;66031;51.224;-0.164;2023-02-26T09:48:43;101822.31;;;16.08;33.65
57452;BME280;66031;51.224;-0.164;2023-02-26T09:51:12;101826.58;;;16.51;33.54
57452;BME280;66031;51.224;-0.164;2023-02-26T09:53:36;101823.71;;;16.15;33.60
57452;BME280;66031;51.224;-0.164;2023-02-26T09:56:02;101827.86;;;16.37;33.66
57452;BME280;66031;51.224;-0.164;2023-02-26T09:58:27;101826.60;;;16.53;33.61
57452;BME280;66031;51.224;-0.164;2023-02-26T10:00:55;101831.81;;;16.23;33.64
57452;BME280;66031;51.224;-0.164;2023-02-26T10:03:23;101834.09;;;15.98;33.67
57452;BME280;66031;51.224;-0.164;2023-02-26T10:05:44;101840.09;;;15.96;33.57
57452;BME280;66031;51.224;-0.164;2023-02-26T10:08:14;101845.54;;;16.40;33.52
57452;BME280;66031;51.224;-0.164;2023-02-26T10:10:37;101850.57;;;15.68;33.53
57452;BME280;66031;51.224;-0.164;2023-02-26T10:12:56;101853.89;;;16.40;33.48
57452;BME280;66031;51.224;-0.164;2023-02-26T10:15:23;101857.21;;;16.16;33.40
57452;BME280;66031;51.224;-0.164;2023-02-26T10:17:56;101858.48;;;15.85;33.91
57452;BME280;66031;51.224;-0.164;2023-02-26T10:20:17;101863.77;;;16.47;34.71
57452;BME280;66031;51.224;-0.164;2023-02-26T10:22:40;101871.15;;;16.13;34.52
57452;BME280;66031;51.224;-0.164;2023-02-26T10:25:06;101867.24;;;16.66;33.80
57452;BME280;66031;51.224;-0.164;2023-02-26T10:27:39;101872.35;;;16.38;34.02
57452;BME280;66031;51.224;-0.164;2023-02-26T10:29:57;101872.58;;;16.14;34.04
57452;BME280;66031;51.224;-0.164;2023-02-26T10:32:24;101883.38;;;16.21;34.05
57452;BME280;66031;51.224;-0.164;2023-02-26T10:34:48;101886.51;;;16.38;34.10
57452;BME280;66031;51.224;-0.164;2023-02-26T10:37:15;101889.75;;;16.23;33.96
57452;BME280;66031;51.224;-0.164;2023-02-26T10:39:39;101892.08;;;16.75;34.00
57452;BME280;66031;51.224;-0.164;2023-02-26T10:42:02;101899.57;;;16.94;34.35
57452;BME280;66031;51.224;-0.164;2023-02-26T10:44:29;101900.65;;;16.47;34.41
57452;BME280;66031;51.224;-0.164;2023-02-26T10:46:55;101900.71;;;16.33;34.68
57452;BME280;66031;51.224;-0.164;2023-02-26T10:49:26;101904.09;;;16.21;35.00
57452;BME280;66031;51.224;-0.164;2023-02-26T10:51:40;101908.00;;;16.47;34.66
57452;BME280;66031;51.224;-0.164;2023-02-26T10:54:14;101903.22;;;16.45;34.27
57452;BME280;66031;51.224;-0.164;2023-02-26T10:56:33;101897.60;;;16.27;34.16
57452;BME280;66031;51.224;-0.164;2023-02-26T10:58:56;101899.02;;;16.47;33.85
57452;BME280;66031;51.224;-0.164;2023-02-26T11:01:24;101897.60;;;16.85;34.39
57452;BME280;66031;51.224;-0.164;2023-02-26T11:03:48;101899.90;;;16.86;33.78
57452;BME280;66031;51.224;-0.164;2023-02-26T11:06:18;101908.33;;;16.50;34.84
57452;BME280;66031;51.224;-0.164;2023-02-26T11:08:41;101907.55;;;16.39;34.75
57452;BME280;66031;51.224;-0.164;2023-02-26T11:11:04;101901.32;;;16.28;35.14
57452;BME280;66031;51.224;-0.164;2023-02-26T11:13:30;101907.43;;;16.79;34.66
57452;BME280;66031;51.224;-0.164;2023-02-26T11:15:55;101909.62;;;16.26;34.56
57452;BME280;66031;51.224;-0.164;2023-02-26T11:18:22;101912.78;;;16.42;34.76
57452;BME280;66031;51.224;-0.164;2023-02-26T11:20:45;101914.46;;;16.13;34.87
57452;BME280;66031;51.224;-0.164;2023-02-26T11:23:12;101920.29;;;16.32;34.81
57452;BME280;66031;51.224;-0.164;2023-02-26T11:25:35;101923.47;;;16.43;35.16
57452;BME280;66031;51.224;-0.164;2023-02-26T11:28:02;101928.90;;;16.41;35.20
57452;BME280;66031;51.224;-0.164;2023-02-26T11:30:27;101939.15;;;16.31;34.91
57452;BME280;66031;51.224;-0.164;2023-02-26T11:32:52;101932.67;;;16.79;35.08
57452;BME280;66031;51.224;-0.164;2023-02-26T11:35:17;101934.51;;;16.56;34.88
57452;BME280;66031;51.224;-0.164;2023-02-26T11:37:46;101931.52;;;16.57;34.70
57452;BME280;66031;51.224;-0.164;2023-02-26T11:40:13;101924.18;;;16.29;34.78
57452;BME280;66031;51.224;-0.164;2023-02-26T11:42:34;101929.37;;;16.25;34.53
57452;BME280;66031;51.224;-0.164;2023-02-26T11:44:57;101928.06;;;16.12;34.42
57452;BME280;66031;51.224;-0.164;2023-02-26T11:47:25;101931.73;;;16.08;34.34
57452;BME280;66031;51.224;-0.164;2023-02-26T11:49:50;101934.21;;;16.33;34.20
57452;BME280;66031;51.224;-0.164;2023-02-26T11:52:20;101941.91;;;16.09;33.99
57452;BME280;66031;51.224;-0.164;2023-02-26T11:54:38;101947.60;;;15.97;34.09
57452;BME280;66031;51.224;-0.164;2023-02-26T11:57:06;101949.44;;;16.28;33.86
57452;BME280;66031;51.224;-0.164;2023-02-26T11:59:31;101954.58;;;15.90;34.27
57452;BME280;66031;51.224;-0.164;2023-02-26T12:01:54;101970.37;;;16.08;34.12
57452;BME280;66031;51.224;-0.164;2023-02-26T12:04:21;101973.94;;;15.96;33.93
57452;BME280;66031;51.224;-0.164;2023-02-26T12:06:45;101970.66;;;16.47;33.82
57452;BME280;66031;51.224;-0.164;2023-02-26T12:09:12;101969.26;;;16.46;34.12
57452;BME280;66031;51.224;-0.164;2023-02-26T12:11:46;101973.33;;;16.01;34.19
57452;BME280;66031;51.224;-0.164;2023-02-26T12:14:11;101972.05;;;15.87;34.20
57452;BME280;66031;51.224;-0.164;2023-02-26T12:16:30;101970.35;;;15.58;33.70
57452;BME280;66031;51.224;-0.164;2023-02-26T12:18:59;101967.46;;;15.87;34.04
57452;BME280;66031;51.224;-0.164;2023-02-26T12:21:28;101965.21;;;15.92;34.03
57452;BME280;66031;51.224;-0.164;2023-02-26T12:24:01;101966.58;;;15.76;33.88
57452;BME280;66031;51.224;-0.164;2023-02-26T12:26:21;101965.53;;;15.92;33.92
57452;BME280;66031;51.224;-0.164;2023-02-26T12:28:47;101960.33;;;15.88;33.93
57452;BME280;66031;51.224;-0.164;2023-02-26T12:33:32;101965.15;;;15.76;33.94